EPPO

Poznań-Ławica Airport

Poznań, Poland
METAR EPPO 220630Z 23003KT 220V290 CAVOK 12/04 Q1018 R10/090095
Observed Flight Rules
Apr-22 @ 06:30 UTC (20 minutes ago) Visual Flight Rules
Wind Visibility Clouds
230° at 3 knots 10,000+ meters
  • Clear skies
Temperatures Readings
Current 12°C / 54°F
Dewpoint 4°C / 39°F
Humidity 58%
Altimeter 30.06" Hg
Pressure 1018 hPa
Elevation 92
METAR EPPO 220630Z 23003KT 220V290 CAVOK 12/04 Q1018 R10/090095
Observed Flight Rules
Apr-22 @ 06:30 UTC
(20 minutes ago)
VFR
Wind Visibility
230° at 3 knots 10,000+ meters
Clouds
  • Clear skies
Temperature Dewpoint
12°C / 54°F 4°C / 39°F
Humidity Altimeter Pressure
58% 30.06" Hg 1018 hPa